»·PEaware :: N364CM KNFG-KNYL

N364CM :: KNFG-KNYL

FLIGHT INFORMATION

Flight Status: Arrived
Operator: Privately registered:
United States
More flights under this callsign
Pilot: Brian S. (32023)
Aircraft: BEECH AIRCRAFT SUPER KING AIR 350
(B350)
More flights by this aircraft type
Origin: KNFG Camp Pendleton MCAS
United States
Destination: KNYL Yuma MCAS/Yuma Intl
United States
More flights between these airports :: More routes between these airports
Route: BLDG1 BONDO V458 BZA
File this flight plan on PilotEdge
Remarks:
Altitude:
(Current/Filed)
9,000ft
Speed:
(Current/Filed)
260kts
Departed: 23-Jan-21 04:37 PM
Arrived: 23-Jan-21 05:29 PM
Distance/Time
Traveled:
143nm/0:52
Distance/Time
To Go:
Arrived

Flight Plot

Page will automatically refresh every two minutes.

Flight plan parsing failed; only flown route is shown


Map Options




Map Legend


Flown Route
Filed Route
Departure Airport
Arrival Airport
Navaid (VOR, NDB)
Fix

Horizontal Profiles

Position Reports

Time Latitude Longitude Heading Altitude Ground
Speed
23-Jan-21 15:34 33.298083 -117.354775 226 83ft 0kts
23-Jan-21 15:35 33.298083 -117.354775 226 83ft 0kts
23-Jan-21 15:36 33.298083 -117.354775 226 83ft 0kts
23-Jan-21 15:37 33.298083 -117.354775 226 83ft 0kts
23-Jan-21 15:38 33.298083 -117.354775 226 83ft 0kts
23-Jan-21 15:39 33.298083 -117.354775 226 83ft 0kts
23-Jan-21 15:40 33.298083 -117.354775 226 83ft 0kts
23-Jan-21 15:41 33.298083 -117.354775 226 83ft 0kts
23-Jan-21 15:42 33.298083 -117.354775 226 83ft 0kts
23-Jan-21 15:43 33.298083 -117.354775 226 83ft 0kts
23-Jan-21 15:44 33.298083 -117.354775 226 83ft 0kts
23-Jan-21 15:45 33.298083 -117.354775 226 83ft 0kts
23-Jan-21 15:46 33.298083 -117.354775 226 83ft 0kts
23-Jan-21 15:47 33.298083 -117.354775 226 83ft 0kts
23-Jan-21 15:48 33.298083 -117.354775 226 83ft 0kts
23-Jan-21 15:48 33.298083 -117.354775 226 83ft 0kts
23-Jan-21 15:52 33.298083 -117.354775 226 83ft 0kts
23-Jan-21 15:52 33.298083 -117.354775 226 83ft 0kts
23-Jan-21 15:54 33.298083 -117.354775 226 83ft 0kts
23-Jan-21 15:55 33.298083 -117.354775 226 83ft 0kts
23-Jan-21 15:56 33.298083 -117.354775 226 83ft 0kts
23-Jan-21 15:56 33.298083 -117.354775 226 83ft 0kts
23-Jan-21 15:58 33.298083 -117.354775 226 83ft 0kts
23-Jan-21 15:59 33.298083 -117.354775 226 83ft 0kts
23-Jan-21 16:00 33.298083 -117.354775 226 83ft 0kts
23-Jan-21 16:00 33.298083 -117.354775 226 83ft 0kts
23-Jan-21 16:02 33.298083 -117.354775 226 83ft 0kts
23-Jan-21 16:02 33.298083 -117.354775 226 83ft 0kts
23-Jan-21 16:03 33.298083 -117.354775 226 83ft 0kts
23-Jan-21 16:04 33.298083 -117.354775 226 83ft 0kts
23-Jan-21 16:06 33.298083 -117.354775 226 83ft 0kts
23-Jan-21 16:06 33.298083 -117.354775 226 83ft 0kts
23-Jan-21 16:07 33.298083 -117.354775 226 83ft 0kts
23-Jan-21 16:08 33.298083 -117.354775 226 83ft 0kts
23-Jan-21 16:12 33.671577 -117.873704 206 61ft 0kts
23-Jan-21 16:13 33.671577 -117.873704 206 61ft 0kts
23-Jan-21 16:14 33.671577 -117.873704 206 61ft 0kts
23-Jan-21 16:15 33.298083 -117.354775 226 83ft 0kts
23-Jan-21 16:16 33.298083 -117.354775 226 83ft 0kts
23-Jan-21 16:17 33.298083 -117.354775 226 83ft 0kts
23-Jan-21 16:18 33.298083 -117.354775 226 83ft 0kts
23-Jan-21 16:19 33.298083 -117.354775 226 83ft 0kts
23-Jan-21 16:20 33.298083 -117.354775 226 83ft 0kts
23-Jan-21 16:21 33.298083 -117.354775 226 83ft 0kts
23-Jan-21 16:22 33.298083 -117.354775 226 83ft 0kts
23-Jan-21 16:23 33.298083 -117.354775 226 83ft 0kts
23-Jan-21 16:24 33.298083 -117.354775 226 83ft 0kts
23-Jan-21 16:25 33.298083 -117.354775 226 83ft 0kts
23-Jan-21 16:26 33.298083 -117.354775 226 83ft 0kts
23-Jan-21 16:27 33.298083 -117.354775 226 83ft 0kts
23-Jan-21 16:28 33.298083 -117.354775 226 83ft 0kts
23-Jan-21 16:29 33.298083 -117.354775 226 83ft 0kts
23-Jan-21 16:30 33.298083 -117.354775 226 83ft 0kts
23-Jan-21 16:31 33.298083 -117.354775 226 83ft 0kts
23-Jan-21 16:32 33.298083 -117.354775 226 83ft 0kts
23-Jan-21 16:33 33.300692 -117.353172 43 83ft 24kts
23-Jan-21 16:34 33.305952 -117.347117 43 83ft 23kts
23-Jan-21 16:35 33.306676 -117.348915 224 83ft 0kts
23-Jan-21 16:36 33.298273 -117.358622 223 97ft 123kts
23-Jan-21 16:37 33.269285 -117.389833 222 814ft 169kts
23-Jan-21 16:38 33.229855 -117.414474 146 1691ft 174kts
23-Jan-21 16:39 33.229927 -117.360525 84 2377ft 176kts
23-Jan-21 16:40 33.226929 -117.301872 97 3066ft 178kts
23-Jan-21 16:41 33.220054 -117.243047 98 3729ft 179kts
23-Jan-21 16:42 33.213005 -117.183659 98 4384ft 181kts
23-Jan-21 16:43 33.205863 -117.123713 98 5018ft 183kts
23-Jan-21 16:44 33.198653 -117.063452 98 5623ft 184kts
23-Jan-21 16:45 33.191346 -117.002644 98 6198ft 185kts
23-Jan-21 16:46 33.184011 -116.941866 98 6739ft 185kts
23-Jan-21 16:47 33.176634 -116.880954 98 7299ft 183kts
23-Jan-21 16:48 33.169796 -116.824302 98 8314ft 164kts
23-Jan-21 16:49 33.163247 -116.770357 98 9023ft 177kts
23-Jan-21 16:50 33.155453 -116.707635 98 9009ft 201kts
23-Jan-21 16:51 33.146924 -116.639466 98 9004ft 214kts
23-Jan-21 16:52 33.130353 -116.571254 127 9021ft 218kts
23-Jan-21 16:53 33.091549 -116.514600 111 8972ft 223kts
23-Jan-21 16:54 33.082240 -116.443004 100 9081ft 221kts
23-Jan-21 16:55 33.042161 -116.388799 136 9083ft 222kts
23-Jan-21 16:56 32.997898 -116.337011 135 9082ft 224kts
23-Jan-21 16:57 32.955015 -116.285564 135 9082ft 224kts
23-Jan-21 16:58 32.909870 -116.231302 134 9082ft 225kts
23-Jan-21 16:59 32.865780 -116.178358 134 9082ft 225kts
23-Jan-21 17:00 32.821605 -116.125410 134 9082ft 225kts
23-Jan-21 17:01 32.777642 -116.072797 134 9082ft 225kts
23-Jan-21 17:02 32.760363 -116.004913 91 9082ft 224kts
23-Jan-21 17:03 32.758846 -115.930502 91 9082ft 225kts
23-Jan-21 17:04 32.757180 -115.856264 91 9082ft 225kts
23-Jan-21 17:05 32.755426 -115.781910 91 9082ft 225kts
23-Jan-21 17:06 32.753647 -115.707359 91 9082ft 225kts
23-Jan-21 17:07 32.751741 -115.633060 91 9082ft 225kts
23-Jan-21 17:08 32.749830 -115.558468 91 9082ft 225kts
23-Jan-21 17:10 32.748441 -115.483984 88 9082ft 225kts
23-Jan-21 17:11 32.750684 -115.411916 87 9082ft 225kts
23-Jan-21 17:12 32.752697 -115.335402 88 9082ft 225kts
23-Jan-21 17:13 32.754443 -115.260676 88 9101ft 224kts
23-Jan-21 17:14 32.756146 -115.186627 88 9101ft 225kts
23-Jan-21 17:15 32.772765 -115.115179 70 9101ft 225kts
23-Jan-21 17:16 32.793345 -115.046065 70 9089ft 226kts
23-Jan-21 17:17 32.815920 -114.970001 70 8208ft 255kts
23-Jan-21 17:18 32.840092 -114.888141 70 7147ft 268kts
23-Jan-21 17:19 32.864846 -114.804343 70 6051ft 266kts
23-Jan-21 17:20 32.889306 -114.721559 70 5084ft 259kts
23-Jan-21 17:21 32.908022 -114.642454 93 5099ft 243kts
23-Jan-21 17:22 32.875343 -114.575633 132 5096ft 237kts
23-Jan-21 17:23 32.833394 -114.520213 132 4560ft 204kts
23-Jan-21 17:24 32.788940 -114.509227 195 3158ft 149kts
23-Jan-21 17:24 32.757199 -114.520123 195 2491ft 141kts
23-Jan-21 17:26 32.715724 -114.538883 223 1720ft 130kts
23-Jan-21 17:27 32.690882 -114.567400 223 984ft 119kts
23-Jan-21 17:27 32.671490 -114.589642 223 470ft 114kts
23-Jan-21 17:28 32.657562 -114.605572 225 215ft 22kts
23-Jan-21 17:29 32.656299 -114.607012 45 215ft 27kts
23-Jan-21 17:30 32.661105 -114.604099 179 215ft 18kts
23-Jan-21 17:31 32.658761 -114.608949 271 215ft 20kts
23-Jan-21 17:32 32.662567 -114.609992 358 215ft 0kts
23-Jan-21 17:33 32.662567 -114.609992 358 215ft 0kts
23-Jan-21 17:34 32.662567 -114.609992 358 215ft 0kts
23-Jan-21 17:35 32.662567 -114.609992 358 215ft 0kts

Navigation Log

Ident Type
Flight plan parsing failed, navigation log unavailable